sensor_id;sensor_type;location;lat;lon;timestamp;temperature;humidity
45104;DHT22;30865;51.288;4.572;2023-03-16T00:00:23;1.20;99.90
45104;DHT22;30865;51.288;4.572;2023-03-16T00:02:49;1.20;99.90
45104;DHT22;30865;51.288;4.572;2023-03-16T00:05:15;1.20;99.90
45104;DHT22;30865;51.288;4.572;2023-03-16T00:07:41;1.20;99.90
45104;DHT22;30865;51.288;4.572;2023-03-16T00:10:08;1.40;99.90
45104;DHT22;30865;51.288;4.572;2023-03-16T00:12:33;1.40;99.90
45104;DHT22;30865;51.288;4.572;2023-03-16T00:14:59;1.40;99.90
45104;DHT22;30865;51.288;4.572;2023-03-16T00:17:25;1.40;99.90
45104;DHT22;30865;51.288;4.572;2023-03-16T00:19:55;1.50;99.90
45104;DHT22;30865;51.288;4.572;2023-03-16T00:22:26;1.50;99.90
45104;DHT22;30865;51.288;4.572;2023-03-16T00:24:53;1.40;99.90
45104;DHT22;30865;51.288;4.572;2023-03-16T00:27:19;1.40;99.90
45104;DHT22;30865;51.288;4.572;2023-03-16T00:29:47;1.40;99.90
45104;DHT22;30865;51.288;4.572;2023-03-16T00:32:15;1.30;99.90
45104;DHT22;30865;51.288;4.572;2023-03-16T00:34:41;1.40;99.90
45104;DHT22;30865;51.288;4.572;2023-03-16T00:37:07;1.30;99.90
45104;DHT22;30865;51.288;4.572;2023-03-16T00:39:32;1.30;99.90
45104;DHT22;30865;51.288;4.572;2023-03-16T00:42:00;1.30;99.90
45104;DHT22;30865;51.288;4.572;2023-03-16T00:44:26;1.30;99.90
45104;DHT22;30865;51.288;4.572;2023-03-16T00:46:52;1.30;99.90
45104;DHT22;30865;51.288;4.572;2023-03-16T00:49:17;1.30;99.90
45104;DHT22;30865;51.288;4.572;2023-03-16T00:51:43;1.30;99.90
45104;DHT22;30865;51.288;4.572;2023-03-16T00:54:10;1.20;99.90
45104;DHT22;30865;51.288;4.572;2023-03-16T00:56:36;1.30;99.90
45104;DHT22;30865;51.288;4.572;2023-03-16T00:59:01;1.30;99.90
45104;DHT22;30865;51.288;4.572;2023-03-16T01:01:27;1.20;99.90
45104;DHT22;30865;51.288;4.572;2023-03-16T01:03:52;1.10;99.90
45104;DHT22;30865;51.288;4.572;2023-03-16T01:06:19;1.10;99.90
45104;DHT22;30865;51.288;4.572;2023-03-16T01:08:48;1.20;99.90
45104;DHT22;30865;51.288;4.572;2023-03-16T01:11:18;1.30;99.90
45104;DHT22;30865;51.288;4.572;2023-03-16T01:13:45;1.20;99.90
45104;DHT22;30865;51.288;4.572;2023-03-16T01:16:17;1.10;99.90
45104;DHT22;30865;51.288;4.572;2023-03-16T01:18:43;1.00;99.90
45104;DHT22;30865;51.288;4.572;2023-03-16T01:21:09;1.00;99.90
45104;DHT22;30865;51.288;4.572;2023-03-16T01:23:39;0.90;99.90
45104;DHT22;30865;51.288;4.572;2023-03-16T01:26:05;0.90;99.90
45104;DHT22;30865;51.288;4.572;2023-03-16T01:28:32;1.00;99.90
45104;DHT22;30865;51.288;4.572;2023-03-16T01:31:08;1.00;99.90
45104;DHT22;30865;51.288;4.572;2023-03-16T01:33:34;0.90;99.90
45104;DHT22;30865;51.288;4.572;2023-03-16T01:36:04;0.90;99.90
45104;DHT22;30865;51.288;4.572;2023-03-16T01:38:30;0.90;99.90
45104;DHT22;30865;51.288;4.572;2023-03-16T01:40:56;0.90;99.90
45104;DHT22;30865;51.288;4.572;2023-03-16T01:43:24;0.90;99.90
45104;DHT22;30865;51.288;4.572;2023-03-16T01:48:32;0.90;99.90
45104;DHT22;30865;51.288;4.572;2023-03-16T01:53:46;0.90;99.90
45104;DHT22;30865;51.288;4.572;2023-03-16T01:56:18;0.90;99.90
45104;DHT22;30865;51.288;4.572;2023-03-16T01:58:45;0.90;99.90
45104;DHT22;30865;51.288;4.572;2023-03-16T02:01:12;0.80;99.90
45104;DHT22;30865;51.288;4.572;2023-03-16T02:03:38;0.70;99.90
45104;DHT22;30865;51.288;4.572;2023-03-16T02:06:28;0.80;99.90
45104;DHT22;30865;51.288;4.572;2023-03-16T02:08:54;0.90;99.90
45104;DHT22;30865;51.288;4.572;2023-03-16T02:11:20;0.90;99.90
45104;DHT22;30865;51.288;4.572;2023-03-16T02:13:47;1.00;99.90
45104;DHT22;30865;51.288;4.572;2023-03-16T02:16:14;1.00;99.90
45104;DHT22;30865;51.288;4.572;2023-03-16T02:18:45;1.00;99.90
45104;DHT22;30865;51.288;4.572;2023-03-16T02:21:17;1.00;99.90
45104;DHT22;30865;51.288;4.572;2023-03-16T02:23:44;1.00;99.90
45104;DHT22;30865;51.288;4.572;2023-03-16T02:26:40;1.00;99.90
45104;DHT22;30865;51.288;4.572;2023-03-16T02:29:23;1.00;99.90
45104;DHT22;30865;51.288;4.572;2023-03-16T02:31:55;0.90;99.90
45104;DHT22;30865;51.288;4.572;2023-03-16T02:34:21;1.00;99.90
45104;DHT22;30865;51.288;4.572;2023-03-16T02:36:48;1.00;99.90
45104;DHT22;30865;51.288;4.572;2023-03-16T02:39:13;1.10;99.90
45104;DHT22;30865;51.288;4.572;2023-03-16T02:41:39;1.00;99.90
45104;DHT22;30865;51.288;4.572;2023-03-16T02:44:12;1.00;99.90
45104;DHT22;30865;51.288;4.572;2023-03-16T02:46:40;1.00;99.90
45104;DHT22;30865;51.288;4.572;2023-03-16T02:49:31;1.00;99.90
45104;DHT22;30865;51.288;4.572;2023-03-16T02:51:58;1.00;99.90
45104;DHT22;30865;51.288;4.572;2023-03-16T02:54:24;1.00;99.90
45104;DHT22;30865;51.288;4.572;2023-03-16T02:56:49;1.00;99.90
45104;DHT22;30865;51.288;4.572;2023-03-16T02:59:15;0.90;99.90
45104;DHT22;30865;51.288;4.572;2023-03-16T03:01:41;0.80;99.90
45104;DHT22;30865;51.288;4.572;2023-03-16T03:04:07;0.80;99.90
45104;DHT22;30865;51.288;4.572;2023-03-16T03:06:33;0.80;99.90
45104;DHT22;30865;51.288;4.572;2023-03-16T03:09:00;0.80;99.90
45104;DHT22;30865;51.288;4.572;2023-03-16T03:11:26;0.80;99.90
45104;DHT22;30865;51.288;4.572;2023-03-16T03:13:52;0.90;99.90
45104;DHT22;30865;51.288;4.572;2023-03-16T03:16:18;0.80;99.90
45104;DHT22;30865;51.288;4.572;2023-03-16T03:18:43;0.90;99.90
45104;DHT22;30865;51.288;4.572;2023-03-16T03:21:09;0.90;99.90
45104;DHT22;30865;51.288;4.572;2023-03-16T03:23:35;0.80;99.90
45104;DHT22;30865;51.288;4.572;2023-03-16T03:26:00;0.90;99.90
45104;DHT22;30865;51.288;4.572;2023-03-16T03:28:27;0.90;99.90
45104;DHT22;30865;51.288;4.572;2023-03-16T03:30:53;0.80;99.90
45104;DHT22;30865;51.288;4.572;2023-03-16T03:33:18;0.80;99.90
45104;DHT22;30865;51.288;4.572;2023-03-16T03:35:44;0.80;99.90
45104;DHT22;30865;51.288;4.572;2023-03-16T03:38:09;0.70;99.90
45104;DHT22;30865;51.288;4.572;2023-03-16T03:40:36;0.70;99.90
45104;DHT22;30865;51.288;4.572;2023-03-16T03:43:02;0.70;99.90
45104;DHT22;30865;51.288;4.572;2023-03-16T03:45:27;0.70;99.90
45104;DHT22;30865;51.288;4.572;2023-03-16T03:47:53;0.60;99.90
45104;DHT22;30865;51.288;4.572;2023-03-16T03:50:21;0.60;99.90
45104;DHT22;30865;51.288;4.572;2023-03-16T03:52:46;0.60;99.90
45104;DHT22;30865;51.288;4.572;2023-03-16T03:55:12;0.50;99.90
45104;DHT22;30865;51.288;4.572;2023-03-16T03:57:38;0.50;99.90
45104;DHT22;30865;51.288;4.572;2023-03-16T04:00:05;0.60;99.90
45104;DHT22;30865;51.288;4.572;2023-03-16T04:02:38;0.60;99.90
45104;DHT22;30865;51.288;4.572;2023-03-16T04:05:04;0.60;99.90
45104;DHT22;30865;51.288;4.572;2023-03-16T04:07:30;0.70;99.90
45104;DHT22;30865;51.288;4.572;2023-03-16T04:09:55;0.70;99.90
45104;DHT22;30865;51.288;4.572;2023-03-16T04:12:21;0.70;99.90
45104;DHT22;30865;51.288;4.572;2023-03-16T04:14:46;0.70;99.90
45104;DHT22;30865;51.288;4.572;2023-03-16T04:17:12;0.70;99.90
45104;DHT22;30865;51.288;4.572;2023-03-16T04:19:38;0.70;99.90
45104;DHT22;30865;51.288;4.572;2023-03-16T04:22:04;0.60;99.90
45104;DHT22;30865;51.288;4.572;2023-03-16T04:24:29;0.60;99.90
45104;DHT22;30865;51.288;4.572;2023-03-16T04:26:58;0.60;99.90
45104;DHT22;30865;51.288;4.572;2023-03-16T04:29:25;0.60;99.90
45104;DHT22;30865;51.288;4.572;2023-03-16T04:31:50;0.60;99.90
45104;DHT22;30865;51.288;4.572;2023-03-16T04:34:18;0.60;99.90
45104;DHT22;30865;51.288;4.572;2023-03-16T04:36:44;0.60;99.90
45104;DHT22;30865;51.288;4.572;2023-03-16T04:39:09;0.60;99.90
45104;DHT22;30865;51.288;4.572;2023-03-16T04:41:35;0.70;99.90
45104;DHT22;30865;51.288;4.572;2023-03-16T04:44:01;0.70;99.90
45104;DHT22;30865;51.288;4.572;2023-03-16T04:46:27;0.60;99.90
45104;DHT22;30865;51.288;4.572;2023-03-16T04:48:53;0.60;99.90
45104;DHT22;30865;51.288;4.572;2023-03-16T04:51:22;0.60;99.90
45104;DHT22;30865;51.288;4.572;2023-03-16T04:53:48;0.60;99.90
45104;DHT22;30865;51.288;4.572;2023-03-16T04:56:13;0.60;99.90
45104;DHT22;30865;51.288;4.572;2023-03-16T04:58:48;0.60;99.90
45104;DHT22;30865;51.288;4.572;2023-03-16T05:01:14;0.80;99.90
45104;DHT22;30865;51.288;4.572;2023-03-16T05:03:41;0.70;99.90
45104;DHT22;30865;51.288;4.572;2023-03-16T05:06:08;0.70;99.90
45104;DHT22;30865;51.288;4.572;2023-03-16T05:08:34;0.70;99.90
45104;DHT22;30865;51.288;4.572;2023-03-16T05:11:00;0.60;99.90
45104;DHT22;30865;51.288;4.572;2023-03-16T05:13:26;0.60;99.90
45104;DHT22;30865;51.288;4.572;2023-03-16T05:15:52;0.60;99.90
45104;DHT22;30865;51.288;4.572;2023-03-16T05:18:21;0.60;99.90
45104;DHT22;30865;51.288;4.572;2023-03-16T05:20:51;0.60;99.90
45104;DHT22;30865;51.288;4.572;2023-03-16T05:23:18;0.60;99.90
45104;DHT22;30865;51.288;4.572;2023-03-16T05:25:45;0.60;99.90
45104;DHT22;30865;51.288;4.572;2023-03-16T05:28:11;0.60;99.90
45104;DHT22;30865;51.288;4.572;2023-03-16T05:30:37;0.50;99.90
45104;DHT22;30865;51.288;4.572;2023-03-16T05:33:02;0.60;99.90
45104;DHT22;30865;51.288;4.572;2023-03-16T05:35:28;0.60;99.90
45104;DHT22;30865;51.288;4.572;2023-03-16T05:37:55;0.70;99.90
45104;DHT22;30865;51.288;4.572;2023-03-16T05:40:20;0.70;99.90
45104;DHT22;30865;51.288;4.572;2023-03-16T05:42:48;0.70;99.90
45104;DHT22;30865;51.288;4.572;2023-03-16T05:45:15;0.70;99.90
45104;DHT22;30865;51.288;4.572;2023-03-16T05:47:42;0.70;99.90
45104;DHT22;30865;51.288;4.572;2023-03-16T05:50:10;0.70;99.90
45104;DHT22;30865;51.288;4.572;2023-03-16T05:52:39;0.70;99.90
45104;DHT22;30865;51.288;4.572;2023-03-16T05:55:06;0.70;99.90
45104;DHT22;30865;51.288;4.572;2023-03-16T05:57:33;0.70;99.90
45104;DHT22;30865;51.288;4.572;2023-03-16T05:59:59;0.70;99.90
45104;DHT22;30865;51.288;4.572;2023-03-16T06:02:26;0.80;99.90
45104;DHT22;30865;51.288;4.572;2023-03-16T06:04:52;0.90;99.90
45104;DHT22;30865;51.288;4.572;2023-03-16T06:07:17;0.80;99.90
45104;DHT22;30865;51.288;4.572;2023-03-16T06:09:43;0.80;99.90
45104;DHT22;30865;51.288;4.572;2023-03-16T06:12:08;0.80;99.90
45104;DHT22;30865;51.288;4.572;2023-03-16T06:14:34;0.80;99.90
45104;DHT22;30865;51.288;4.572;2023-03-16T06:17:00;0.80;99.90
45104;DHT22;30865;51.288;4.572;2023-03-16T06:19:25;0.90;99.90
45104;DHT22;30865;51.288;4.572;2023-03-16T06:21:51;0.90;99.90
45104;DHT22;30865;51.288;4.572;2023-03-16T06:24:17;1.00;99.90
45104;DHT22;30865;51.288;4.572;2023-03-16T06:26:43;1.00;99.90
45104;DHT22;30865;51.288;4.572;2023-03-16T06:29:08;1.00;99.90
45104;DHT22;30865;51.288;4.572;2023-03-16T06:31:34;1.00;99.90
45104;DHT22;30865;51.288;4.572;2023-03-16T06:34:00;1.10;99.90
45104;DHT22;30865;51.288;4.572;2023-03-16T06:36:26;1.10;99.90
45104;DHT22;30865;51.288;4.572;2023-03-16T06:38:51;1.20;99.90
45104;DHT22;30865;51.288;4.572;2023-03-16T06:41:17;1.20;99.90
45104;DHT22;30865;51.288;4.572;2023-03-16T06:43:42;1.30;99.90
45104;DHT22;30865;51.288;4.572;2023-03-16T06:46:08;1.30;99.90
45104;DHT22;30865;51.288;4.572;2023-03-16T06:48:34;1.40;99.90
45104;DHT22;30865;51.288;4.572;2023-03-16T06:50:59;1.50;99.90
45104;DHT22;30865;51.288;4.572;2023-03-16T06:53:25;1.50;99.90
45104;DHT22;30865;51.288;4.572;2023-03-16T06:55:51;1.60;99.90
45104;DHT22;30865;51.288;4.572;2023-03-16T06:58:17;1.70;99.90
45104;DHT22;30865;51.288;4.572;2023-03-16T07:00:42;1.80;99.90
45104;DHT22;30865;51.288;4.572;2023-03-16T07:03:08;1.90;99.90
45104;DHT22;30865;51.288;4.572;2023-03-16T07:05:33;2.10;99.90
45104;DHT22;30865;51.288;4.572;2023-03-16T07:07:59;2.10;99.90
45104;DHT22;30865;51.288;4.572;2023-03-16T07:10:25;2.30;99.90
45104;DHT22;30865;51.288;4.572;2023-03-16T07:12:50;2.40;99.90
45104;DHT22;30865;51.288;4.572;2023-03-16T07:15:16;2.60;99.90
45104;DHT22;30865;51.288;4.572;2023-03-16T07:17:42;2.80;99.90
45104;DHT22;30865;51.288;4.572;2023-03-16T07:20:09;2.90;99.90
45104;DHT22;30865;51.288;4.572;2023-03-16T07:22:38;3.00;99.90
45104;DHT22;30865;51.288;4.572;2023-03-16T07:25:04;3.00;99.90
45104;DHT22;30865;51.288;4.572;2023-03-16T07:27:30;3.20;99.90
45104;DHT22;30865;51.288;4.572;2023-03-16T07:29:56;3.40;99.90
45104;DHT22;30865;51.288;4.572;2023-03-16T07:32:22;3.40;99.90
45104;DHT22;30865;51.288;4.572;2023-03-16T07:34:48;3.50;99.90
45104;DHT22;30865;51.288;4.572;2023-03-16T07:37:14;3.70;99.90
45104;DHT22;30865;51.288;4.572;2023-03-16T07:39:41;3.70;99.90
45104;DHT22;30865;51.288;4.572;2023-03-16T07:42:07;3.90;99.90
45104;DHT22;30865;51.288;4.572;2023-03-16T07:44:32;3.90;99.90
45104;DHT22;30865;51.288;4.572;2023-03-16T07:46:58;4.00;99.90
45104;DHT22;30865;51.288;4.572;2023-03-16T07:49:23;4.20;99.90
45104;DHT22;30865;51.288;4.572;2023-03-16T07:51:49;4.10;99.90
45104;DHT22;30865;51.288;4.572;2023-03-16T07:54:15;4.10;99.90
45104;DHT22;30865;51.288;4.572;2023-03-16T07:56:41;4.30;99.90
45104;DHT22;30865;51.288;4.572;2023-03-16T07:59:07;4.40;99.90
45104;DHT22;30865;51.288;4.572;2023-03-16T08:01:32;4.50;99.90
45104;DHT22;30865;51.288;4.572;2023-03-16T08:03:59;4.60;99.90
45104;DHT22;30865;51.288;4.572;2023-03-16T08:06:26;4.60;99.90
45104;DHT22;30865;51.288;4.572;2023-03-16T08:08:51;4.70;99.90
45104;DHT22;30865;51.288;4.572;2023-03-16T08:11:17;4.80;99.90
45104;DHT22;30865;51.288;4.572;2023-03-16T08:13:48;4.90;99.90
45104;DHT22;30865;51.288;4.572;2023-03-16T08:16:22;5.00;98.60
45104;DHT22;30865;51.288;4.572;2023-03-16T08:18:48;5.10;99.70
45104;DHT22;30865;51.288;4.572;2023-03-16T08:21:15;5.20;99.10
45104;DHT22;30865;51.288;4.572;2023-03-16T08:23:41;5.20;98.90
45104;DHT22;30865;51.288;4.572;2023-03-16T08:26:14;5.30;98.50
45104;DHT22;30865;51.288;4.572;2023-03-16T08:28:41;5.30;99.20
45104;DHT22;30865;51.288;4.572;2023-03-16T08:31:07;5.30;99.20
45104;DHT22;30865;51.288;4.572;2023-03-16T08:33:33;5.30;99.20
45104;DHT22;30865;51.288;4.572;2023-03-16T08:35:59;5.40;98.90
45104;DHT22;30865;51.288;4.572;2023-03-16T08:38:24;5.50;98.50
45104;DHT22;30865;51.288;4.572;2023-03-16T08:40:50;5.80;98.80
45104;DHT22;30865;51.288;4.572;2023-03-16T08:43:17;5.70;97.80
45104;DHT22;30865;51.288;4.572;2023-03-16T08:45:47;5.80;97.30
45104;DHT22;30865;51.288;4.572;2023-03-16T08:48:13;6.00;96.70
45104;DHT22;30865;51.288;4.572;2023-03-16T08:50:42;6.10;96.50
45104;DHT22;30865;51.288;4.572;2023-03-16T08:53:09;6.20;95.90
45104;DHT22;30865;51.288;4.572;2023-03-16T08:55:35;6.20;96.60
45104;DHT22;30865;51.288;4.572;2023-03-16T08:58:01;6.20;94.80
45104;DHT22;30865;51.288;4.572;2023-03-16T09:00:27;6.30;94.80
45104;DHT22;30865;51.288;4.572;2023-03-16T09:02:53;6.40;95.40
45104;DHT22;30865;51.288;4.572;2023-03-16T09:05:20;6.40;94.80
45104;DHT22;30865;51.288;4.572;2023-03-16T09:07:46;6.50;94.00
45104;DHT22;30865;51.288;4.572;2023-03-16T09:10:12;6.60;95.90
45104;DHT22;30865;51.288;4.572;2023-03-16T09:12:43;6.60;95.50
45104;DHT22;30865;51.288;4.572;2023-03-16T09:15:11;6.60;96.30
45104;DHT22;30865;51.288;4.572;2023-03-16T09:17:38;6.80;95.70
45104;DHT22;30865;51.288;4.572;2023-03-16T09:20:06;6.70;95.60
45104;DHT22;30865;51.288;4.572;2023-03-16T09:22:34;6.80;95.60
45104;DHT22;30865;51.288;4.572;2023-03-16T09:25:00;6.80;94.50
45104;DHT22;30865;51.288;4.572;2023-03-16T09:27:25;6.80;94.60
45104;DHT22;30865;51.288;4.572;2023-03-16T09:29:51;7.00;95.70
45104;DHT22;30865;51.288;4.572;2023-03-16T09:32:20;7.10;95.40
45104;DHT22;30865;51.288;4.572;2023-03-16T09:34:45;7.10;95.00
45104;DHT22;30865;51.288;4.572;2023-03-16T09:37:11;7.30;95.00
45104;DHT22;30865;51.288;4.572;2023-03-16T09:39:40;7.30;93.60
45104;DHT22;30865;51.288;4.572;2023-03-16T09:42:26;7.40;94.50
45104;DHT22;30865;51.288;4.572;2023-03-16T09:48:01;7.50;94.40
45104;DHT22;30865;51.288;4.572;2023-03-16T09:50:32;7.60;94.70
45104;DHT22;30865;51.288;4.572;2023-03-16T09:53:21;7.80;95.40
45104;DHT22;30865;51.288;4.572;2023-03-16T09:55:52;8.00;93.90
45104;DHT22;30865;51.288;4.572;2023-03-16T09:58:21;8.30;93.50
45104;DHT22;30865;51.288;4.572;2023-03-16T10:01:11;8.20;92.60
45104;DHT22;30865;51.288;4.572;2023-03-16T10:06:27;8.20;91.40
45104;DHT22;30865;51.288;4.572;2023-03-16T10:08:59;8.20;92.70
45104;DHT22;30865;51.288;4.572;2023-03-16T10:11:34;8.30;91.10
45104;DHT22;30865;51.288;4.572;2023-03-16T10:17:04;8.40;90.90
45104;DHT22;30865;51.288;4.572;2023-03-16T10:19:56;8.30;92.00
45104;DHT22;30865;51.288;4.572;2023-03-16T10:22:28;8.60;93.10
45104;DHT22;30865;51.288;4.572;2023-03-16T10:25:00;8.60;92.00
45104;DHT22;30865;51.288;4.572;2023-03-16T10:27:32;8.70;91.10
45104;DHT22;30865;51.288;4.572;2023-03-16T10:29:59;8.70;90.20
45104;DHT22;30865;51.288;4.572;2023-03-16T10:32:30;8.60;90.90
45104;DHT22;30865;51.288;4.572;2023-03-16T10:35:01;8.60;91.50
45104;DHT22;30865;51.288;4.572;2023-03-16T10:37:30;8.70;91.40
45104;DHT22;30865;51.288;4.572;2023-03-16T10:39:56;8.80;90.90
45104;DHT22;30865;51.288;4.572;2023-03-16T10:42:21;8.80;88.30
45104;DHT22;30865;51.288;4.572;2023-03-16T10:44:48;9.00;90.70
45104;DHT22;30865;51.288;4.572;2023-03-16T10:47:21;9.30;90.80
45104;DHT22;30865;51.288;4.572;2023-03-16T10:49:49;9.90;82.70
45104;DHT22;30865;51.288;4.572;2023-03-16T10:55:09;9.50;87.20
45104;DHT22;30865;51.288;4.572;2023-03-16T10:57:39;9.50;84.20
45104;DHT22;30865;51.288;4.572;2023-03-16T11:00:27;9.50;91.20
45104;DHT22;30865;51.288;4.572;2023-03-16T11:02:55;9.40;90.40
45104;DHT22;30865;51.288;4.572;2023-03-16T11:07:58;10.00;84.60
45104;DHT22;30865;51.288;4.572;2023-03-16T11:10:34;9.80;83.80
45104;DHT22;30865;51.288;4.572;2023-03-16T11:13:12;10.00;84.20
45104;DHT22;30865;51.288;4.572;2023-03-16T11:18:29;10.20;80.50
45104;DHT22;30865;51.288;4.572;2023-03-16T11:20:55;10.40;77.30
45104;DHT22;30865;51.288;4.572;2023-03-16T11:23:30;10.10;82.90
45104;DHT22;30865;51.288;4.572;2023-03-16T11:26:01;10.10;81.80
45104;DHT22;30865;51.288;4.572;2023-03-16T11:28:36;10.40;78.80
45104;DHT22;30865;51.288;4.572;2023-03-16T11:33:53;10.60;77.10
45104;DHT22;30865;51.288;4.572;2023-03-16T11:42:22;10.80;74.70
45104;DHT22;30865;51.288;4.572;2023-03-16T11:45:02;11.00;70.60
45104;DHT22;30865;51.288;4.572;2023-03-16T11:47:52;11.00;76.20
45104;DHT22;30865;51.288;4.572;2023-03-16T11:50:51;10.80;74.00
45104;DHT22;30865;51.288;4.572;2023-03-16T11:53:30;10.80;73.80
45104;DHT22;30865;51.288;4.572;2023-03-16T11:56:20;10.70;72.20
45104;DHT22;30865;51.288;4.572;2023-03-16T12:01:57;11.00;71.40
45104;DHT22;30865;51.288;4.572;2023-03-16T12:07:42;11.00;79.50
45104;DHT22;30865;51.288;4.572;2023-03-16T12:10:21;10.90;74.80
45104;DHT22;30865;51.288;4.572;2023-03-16T12:15:34;11.50;73.20
45104;DHT22;30865;51.288;4.572;2023-03-16T12:21:04;11.60;70.00
45104;DHT22;30865;51.288;4.572;2023-03-16T12:23:35;11.70;77.30
45104;DHT22;30865;51.288;4.572;2023-03-16T12:26:03;11.80;70.50
45104;DHT22;30865;51.288;4.572;2023-03-16T12:28:29;11.90;69.20
45104;DHT22;30865;51.288;4.572;2023-03-16T12:34:07;12.00;68.30
45104;DHT22;30865;51.288;4.572;2023-03-16T12:39:53;12.20;66.50
45104;DHT22;30865;51.288;4.572;2023-03-16T12:48:14;12.10;68.80
45104;DHT22;30865;51.288;4.572;2023-03-16T12:50:51;12.30;67.60
45104;DHT22;30865;51.288;4.572;2023-03-16T12:53:42;12.30;59.60
45104;DHT22;30865;51.288;4.572;2023-03-16T12:56:17;12.40;66.50
45104;DHT22;30865;51.288;4.572;2023-03-16T12:58:46;12.10;71.50
45104;DHT22;30865;51.288;4.572;2023-03-16T13:01:14;12.10;66.20
45104;DHT22;30865;51.288;4.572;2023-03-16T13:03:42;12.20;65.10
45104;DHT22;30865;51.288;4.572;2023-03-16T13:06:22;12.20;64.50
45104;DHT22;30865;51.288;4.572;2023-03-16T13:08:56;12.10;64.60
45104;DHT22;30865;51.288;4.572;2023-03-16T13:11:26;11.60;65.70
45104;DHT22;30865;51.288;4.572;2023-03-16T13:14:06;11.50;68.70
45104;DHT22;30865;51.288;4.572;2023-03-16T13:16:38;11.90;63.90
45104;DHT22;30865;51.288;4.572;2023-03-16T13:19:22;12.30;63.20
45104;DHT22;30865;51.288;4.572;2023-03-16T13:22:04;12.20;61.00
45104;DHT22;30865;51.288;4.572;2023-03-16T13:24:38;12.40;62.60
45104;DHT22;30865;51.288;4.572;2023-03-16T13:27:16;12.30;60.70
45104;DHT22;30865;51.288;4.572;2023-03-16T13:29:56;12.40;63.60
45104;DHT22;30865;51.288;4.572;2023-03-16T13:32:23;12.60;65.10
45104;DHT22;30865;51.288;4.572;2023-03-16T13:34:52;12.50;61.40
45104;DHT22;30865;51.288;4.572;2023-03-16T13:37:21;12.50;65.80
45104;DHT22;30865;51.288;4.572;2023-03-16T13:40:01;12.50;64.30
45104;DHT22;30865;51.288;4.572;2023-03-16T13:42:30;12.40;65.90
45104;DHT22;30865;51.288;4.572;2023-03-16T13:44:57;12.10;69.30
45104;DHT22;30865;51.288;4.572;2023-03-16T13:47:26;12.00;65.40
45104;DHT22;30865;51.288;4.572;2023-03-16T13:49:57;12.10;65.40
45104;DHT22;30865;51.288;4.572;2023-03-16T13:52:30;12.10;65.80
45104;DHT22;30865;51.288;4.572;2023-03-16T13:54:57;12.10;60.90
45104;DHT22;30865;51.288;4.572;2023-03-16T13:57:34;12.20;63.10
45104;DHT22;30865;51.288;4.572;2023-03-16T14:02:35;12.30;58.20
45104;DHT22;30865;51.288;4.572;2023-03-16T14:05:17;12.50;56.30
45104;DHT22;30865;51.288;4.572;2023-03-16T14:07:46;12.40;56.10
45104;DHT22;30865;51.288;4.572;2023-03-16T14:10:13;12.50;57.60
45104;DHT22;30865;51.288;4.572;2023-03-16T14:15:19;13.20;55.60
45104;DHT22;30865;51.288;4.572;2023-03-16T14:17:46;13.20;55.30
45104;DHT22;30865;51.288;4.572;2023-03-16T14:20:24;13.50;54.40
45104;DHT22;30865;51.288;4.572;2023-03-16T14:22:53;13.60;53.80
45104;DHT22;30865;51.288;4.572;2023-03-16T14:25:21;13.40;52.70
45104;DHT22;30865;51.288;4.572;2023-03-16T14:27:59;13.30;54.10
45104;DHT22;30865;51.288;4.572;2023-03-16T14:30:28;13.40;54.90
45104;DHT22;30865;51.288;4.572;2023-03-16T14:32:59;13.60;52.60
45104;DHT22;30865;51.288;4.572;2023-03-16T14:35:30;13.60;52.00
45104;DHT22;30865;51.288;4.572;2023-03-16T14:37:57;13.50;52.70
45104;DHT22;30865;51.288;4.572;2023-03-16T14:40:52;13.60;51.30
45104;DHT22;30865;51.288;4.572;2023-03-16T14:43:23;13.60;50.80
45104;DHT22;30865;51.288;4.572;2023-03-16T14:45:51;13.40;50.40
45104;DHT22;30865;51.288;4.572;2023-03-16T14:48:19;13.50;50.30
45104;DHT22;30865;51.288;4.572;2023-03-16T14:50:49;13.60;51.60
45104;DHT22;30865;51.288;4.572;2023-03-16T14:53:20;13.70;50.90
45104;DHT22;30865;51.288;4.572;2023-03-16T14:55:48;13.60;51.50
45104;DHT22;30865;51.288;4.572;2023-03-16T14:58:14;13.40;52.20
45104;DHT22;30865;51.288;4.572;2023-03-16T15:00:41;13.40;52.50
45104;DHT22;30865;51.288;4.572;2023-03-16T15:03:13;13.40;52.70
45104;DHT22;30865;51.288;4.572;2023-03-16T15:05:41;13.50;52.90
45104;DHT22;30865;51.288;4.572;2023-03-16T15:08:15;13.40;52.80
45104;DHT22;30865;51.288;4.572;2023-03-16T15:10:42;13.40;53.30
45104;DHT22;30865;51.288;4.572;2023-03-16T15:13:17;13.60;53.10
45104;DHT22;30865;51.288;4.572;2023-03-16T15:16:00;13.70;52.50
45104;DHT22;30865;51.288;4.572;2023-03-16T15:18:28;13.60;51.90
45104;DHT22;30865;51.288;4.572;2023-03-16T15:20:54;13.60;52.80
45104;DHT22;30865;51.288;4.572;2023-03-16T15:23:19;13.60;53.20
45104;DHT22;30865;51.288;4.572;2023-03-16T15:25:46;13.60;52.70
45104;DHT22;30865;51.288;4.572;2023-03-16T15:28:21;13.60;52.40
45104;DHT22;30865;51.288;4.572;2023-03-16T15:30:48;13.60;53.10
45104;DHT22;30865;51.288;4.572;2023-03-16T15:33:14;13.60;52.00
45104;DHT22;30865;51.288;4.572;2023-03-16T15:35:41;13.60;54.20
45104;DHT22;30865;51.288;4.572;2023-03-16T15:38:31;13.70;52.20
45104;DHT22;30865;51.288;4.572;2023-03-16T15:40:58;13.80;48.10
45104;DHT22;30865;51.288;4.572;2023-03-16T15:43:26;13.60;47.90
45104;DHT22;30865;51.288;4.572;2023-03-16T15:45:54;13.40;51.00
45104;DHT22;30865;51.288;4.572;2023-03-16T15:48:20;13.30;51.10
45104;DHT22;30865;51.288;4.572;2023-03-16T15:50:57;13.30;49.70
45104;DHT22;30865;51.288;4.572;2023-03-16T15:55:59;13.10;50.30
45104;DHT22;30865;51.288;4.572;2023-03-16T15:58:27;13.20;51.80
45104;DHT22;30865;51.288;4.572;2023-03-16T16:00:56;13.20;52.90
45104;DHT22;30865;51.288;4.572;2023-03-16T16:03:22;13.10;52.90
45104;DHT22;30865;51.288;4.572;2023-03-16T16:05:48;13.10;53.30
45104;DHT22;30865;51.288;4.572;2023-03-16T16:08:14;13.10;53.70
45104;DHT22;30865;51.288;4.572;2023-03-16T16:10:40;13.00;54.00
45104;DHT22;30865;51.288;4.572;2023-03-16T16:13:31;13.00;54.60
45104;DHT22;30865;51.288;4.572;2023-03-16T16:15:56;13.00;54.70
45104;DHT22;30865;51.288;4.572;2023-03-16T16:18:33;13.00;54.70
45104;DHT22;30865;51.288;4.572;2023-03-16T16:21:02;13.00;55.00
45104;DHT22;30865;51.288;4.572;2023-03-16T16:23:28;12.90;55.40
45104;DHT22;30865;51.288;4.572;2023-03-16T16:25:58;12.80;55.40
45104;DHT22;30865;51.288;4.572;2023-03-16T16:28:28;12.70;55.20
45104;DHT22;30865;51.288;4.572;2023-03-16T16:30:54;12.70;55.00
45104;DHT22;30865;51.288;4.572;2023-03-16T16:33:28;12.70;55.50
45104;DHT22;30865;51.288;4.572;2023-03-16T16:35:56;12.60;55.20
45104;DHT22;30865;51.288;4.572;2023-03-16T16:38:23;12.60;55.20
45104;DHT22;30865;51.288;4.572;2023-03-16T16:40:49;12.60;55.40
45104;DHT22;30865;51.288;4.572;2023-03-16T16:43:41;12.50;55.00
45104;DHT22;30865;51.288;4.572;2023-03-16T16:46:19;12.50;54.70
45104;DHT22;30865;51.288;4.572;2023-03-16T16:48:51;12.40;54.60
45104;DHT22;30865;51.288;4.572;2023-03-16T16:51:23;12.30;55.00
45104;DHT22;30865;51.288;4.572;2023-03-16T16:53:54;12.30;54.60
45104;DHT22;30865;51.288;4.572;2023-03-16T16:56:26;12.20;54.80